createdAt,value
2023-04-13T00:01:35.612Z,65.81
2023-04-13T00:04:31.355Z,65.64
2023-04-13T00:07:28.404Z,65.68
2023-04-13T00:10:22.680Z,65.68
2023-04-13T00:13:25.040Z,65.77
2023-04-13T00:16:21.414Z,66.08
2023-04-13T00:19:14.402Z,66.33
2023-04-13T00:22:09.861Z,66.34
2023-04-13T00:25:02.419Z,66.27
2023-04-13T00:27:55.118Z,66.04
2023-04-13T00:30:48.818Z,65.85
2023-04-13T00:33:41.873Z,66.20
2023-04-13T00:36:34.692Z,65.98
2023-04-13T00:39:28.084Z,66.07
2023-04-13T00:42:15.437Z,66.26
2023-04-13T00:45:12.226Z,66.11
2023-04-13T00:48:00.836Z,66.03
2023-04-13T00:50:53.715Z,66.17
2023-04-13T00:53:46.590Z,66.21
2023-04-13T00:56:39.310Z,66.05
2023-04-13T00:59:36.337Z,66.36
2023-04-13T01:02:30.002Z,66.59
2023-04-13T01:05:17.796Z,66.38
2023-04-13T01:08:12.493Z,66.34
2023-04-13T01:11:08.756Z,66.12
2023-04-13T01:14:12.533Z,66.05
2023-04-13T01:17:11.552Z,66.08
2023-04-13T01:20:11.003Z,65.90
2023-04-13T01:23:09.632Z,66.14
2023-04-13T01:26:09.157Z,66.21
2023-04-13T01:29:01.727Z,66.08
2023-04-13T01:32:37.988Z,66.19
2023-04-13T01:35:32.280Z,66.50
2023-04-13T01:38:27.472Z,66.64
2023-04-13T01:41:27.096Z,66.88
2023-04-13T01:44:21.381Z,66.97
2023-04-13T01:47:22.985Z,66.94
2023-04-13T01:50:36.061Z,66.60
2023-04-13T01:53:33.191Z,66.63
2023-04-13T01:56:29.859Z,66.69
2023-04-13T01:59:22.783Z,66.86
2023-04-13T02:02:17.063Z,67.15
2023-04-13T02:05:10.952Z,67.25
2023-04-13T02:08:08.617Z,67.07
2023-04-13T02:11:02.214Z,67.00
2023-04-13T02:13:57.712Z,67.10
2023-04-13T02:16:52.589Z,67.07
2023-04-13T02:19:46.326Z,66.82
2023-04-13T02:22:41.613Z,66.69
2023-04-13T02:25:34.174Z,66.75
2023-04-13T02:28:27.950Z,66.69
2023-04-13T02:31:23.696Z,66.69
2023-04-13T02:34:16.649Z,66.95
2023-04-13T02:37:02.638Z,66.88
2023-04-13T02:39:55.861Z,67.02
2023-04-13T02:42:48.780Z,67.02
2023-04-13T02:45:41.953Z,67.14
2023-04-13T02:48:34.418Z,66.99
2023-04-13T02:51:28.227Z,66.76
2023-04-13T02:54:21.467Z,66.91
2023-04-13T02:57:14.719Z,67.07
2023-04-13T03:00:11.582Z,67.24
2023-04-13T03:03:04.749Z,67.43
2023-04-13T03:05:57.920Z,67.62
2023-04-13T03:08:55.042Z,67.62
2023-04-13T03:11:50.100Z,67.59
2023-04-13T03:14:42.737Z,67.36
2023-04-13T03:17:40.570Z,67.06
2023-04-13T03:20:36.528Z,67.23
2023-04-13T03:23:29.050Z,67.53
2023-04-13T03:26:27.940Z,67.28
2023-04-13T03:29:22.122Z,67.16
2023-04-13T03:32:15.171Z,67.04
2023-04-13T03:35:08.357Z,66.81
2023-04-13T03:38:01.163Z,67.03
2023-04-13T03:41:01.522Z,67.10
2023-04-13T03:43:58.336Z,67.23
2023-04-13T03:47:03.927Z,67.22
2023-04-13T03:49:57.603Z,67.53
2023-04-13T03:52:43.210Z,67.64
2023-04-13T03:55:38.237Z,67.83
2023-04-13T03:58:32.288Z,67.78
2023-04-13T04:01:27.245Z,67.77
2023-04-13T04:04:21.680Z,67.59
2023-04-13T04:07:14.653Z,67.65
2023-04-13T04:10:29.292Z,67.74
2023-04-13T04:13:24.854Z,67.81
2023-04-13T04:16:17.500Z,67.83
2023-04-13T04:19:13.209Z,68.03
2023-04-13T04:22:07.336Z,68.06
2023-04-13T04:25:04.950Z,68.10
2023-04-13T04:27:58.425Z,68.29
2023-04-13T04:30:54.651Z,68.23
2023-04-13T04:33:47.568Z,68.29
2023-04-13T04:40:58.012Z,68.30
2023-04-13T04:43:51.010Z,68.20
2023-04-13T04:46:44.185Z,68.32
2023-04-13T04:49:37.444Z,68.36
2023-04-13T04:52:33.187Z,68.50
2023-04-13T04:55:26.666Z,68.55
2023-04-13T04:58:20.798Z,68.64
2023-04-13T05:01:03.765Z,68.68
2023-04-13T05:03:56.579Z,68.78
2023-04-13T05:07:10.756Z,69.07
2023-04-13T05:10:07.334Z,69.27
2023-04-13T05:12:59.958Z,68.88
2023-04-13T05:15:55.209Z,68.72
2023-04-13T05:18:50.262Z,68.67
2023-04-13T05:21:43.255Z,68.81
2023-04-13T05:24:36.168Z,69.16
2023-04-13T05:27:28.685Z,69.71
2023-04-13T05:30:23.514Z,70.16
2023-04-13T05:33:17.308Z,69.84
2023-04-13T05:36:14.853Z,70.11
2023-04-13T05:42:52.564Z,70.76
2023-04-13T05:45:45.272Z,70.92
2023-04-13T05:49:06.589Z,70.88
2023-04-13T05:52:01.216Z,70.30
2023-04-13T05:54:54.147Z,69.76
2023-04-13T05:57:48.524Z,69.17
2023-04-13T06:00:41.484Z,68.60
2023-04-13T06:03:35.478Z,68.21
2023-04-13T06:06:31.248Z,68.08
2023-04-13T06:09:25.274Z,67.88
2023-04-13T06:12:28.589Z,67.99
2023-04-13T06:15:24.679Z,68.05
2023-04-13T06:18:17.729Z,67.83
2023-04-13T06:21:11.189Z,68.37
2023-04-13T06:24:17.819Z,69.39
2023-04-13T06:27:10.588Z,69.74
2023-04-13T06:30:04.197Z,70.23
2023-04-13T06:32:56.945Z,70.70
2023-04-13T06:35:53.163Z,69.88
2023-04-13T06:38:46.280Z,68.57
2023-04-13T06:41:39.387Z,67.89
2023-04-13T06:44:49.712Z,67.62
2023-04-13T06:47:46.125Z,67.99
2023-04-13T06:50:41.338Z,67.75
2023-04-13T06:53:36.974Z,68.42
2023-04-13T06:57:02.241Z,68.47
2023-04-13T06:59:59.424Z,67.79
2023-04-13T07:02:52.171Z,67.36
2023-04-13T07:05:45.513Z,66.41
2023-04-13T07:08:38.503Z,65.62
2023-04-13T07:11:34.754Z,65.57
2023-04-13T07:14:21.106Z,64.01
2023-04-13T07:17:14.368Z,63.73
2023-04-13T07:20:08.555Z,63.01
2023-04-13T07:23:21.826Z,62.58
2023-04-13T07:26:18.577Z,62.56
2023-04-13T07:29:13.970Z,62.81
2023-04-13T07:32:08.322Z,62.64
2023-04-13T07:35:02.275Z,62.90
2023-04-13T07:37:55.186Z,63.62
2023-04-13T07:40:48.298Z,63.50
2023-04-13T07:43:42.466Z,63.49
2023-04-13T07:46:53.933Z,63.06
2023-04-13T07:49:27.029Z,63.02
2023-04-13T07:52:22.321Z,63.40
2023-04-13T07:55:14.993Z,63.09
2023-04-13T07:58:09.652Z,63.49
2023-04-13T08:01:22.227Z,62.88
2023-04-13T08:04:16.316Z,62.73
2023-04-13T08:07:09.068Z,62.27
2023-04-13T08:10:04.413Z,62.02
2023-04-13T08:12:56.521Z,62.12
2023-04-13T08:15:49.425Z,61.75
2023-04-13T08:18:42.595Z,61.74
2023-04-13T08:21:28.572Z,61.72
2023-04-13T08:24:13.692Z,61.62
2023-04-13T08:27:07.658Z,61.32
2023-04-13T08:30:02.291Z,60.88
2023-04-13T08:32:55.381Z,60.97
2023-04-13T08:35:52.509Z,61.17
2023-04-13T08:38:39.012Z,60.29
2023-04-13T08:41:39.839Z,60.46
2023-04-13T08:44:40.236Z,60.18
2023-04-13T08:47:32.883Z,60.09
2023-04-13T08:50:47.906Z,59.88
2023-04-13T08:53:40.344Z,59.67
2023-04-13T08:56:44.356Z,59.21
2023-04-13T09:03:11.632Z,59.73
2023-04-13T09:06:10.413Z,59.29
2023-04-13T09:08:59.561Z,59.34
2023-04-13T09:12:09.186Z,59.09
2023-04-13T09:15:03.358Z,58.96
2023-04-13T09:17:56.570Z,58.89
2023-04-13T09:20:59.857Z,58.94
2023-04-13T09:23:59.408Z,58.48
2023-04-13T09:26:55.139Z,58.50
2023-04-13T09:29:53.875Z,58.38
2023-04-13T09:32:46.565Z,58.33
2023-04-13T09:35:39.190Z,58.04
2023-04-13T09:38:34.849Z,57.33
2023-04-13T09:41:33.656Z,57.30
2023-04-13T09:44:27.693Z,57.07
2023-04-13T09:47:22.513Z,57.02
2023-04-13T09:50:28.396Z,57.15
2023-04-13T09:53:25.881Z,56.77
2023-04-13T09:56:20.359Z,56.29
2023-04-13T09:59:13.778Z,56.25
2023-04-13T10:02:07.055Z,55.88
2023-04-13T10:05:01.646Z,56.36
2023-04-13T10:07:47.432Z,56.56
2023-04-13T10:10:41.207Z,55.95
2023-04-13T10:13:42.934Z,55.83
2023-04-13T10:16:57.155Z,55.84
2023-04-13T10:19:52.836Z,55.48
2023-04-13T10:22:40.796Z,55.25
2023-04-13T10:25:57.794Z,55.11
2023-04-13T10:28:50.295Z,54.96
2023-04-13T10:31:43.039Z,55.07
2023-04-13T10:34:38.529Z,54.95
2023-04-13T10:37:34.385Z,54.85
2023-04-13T10:40:27.425Z,54.51
2023-04-13T10:43:32.561Z,54.32
2023-04-13T10:46:14.207Z,54.34
2023-04-13T10:49:08.454Z,54.37
2023-04-13T10:52:00.996Z,54.17
2023-04-13T10:54:55.178Z,53.38
2023-04-13T10:57:47.709Z,53.08
2023-04-13T11:00:46.022Z,53.66
2023-04-13T11:03:44.915Z,53.78
2023-04-13T11:06:42.979Z,53.06
2023-04-13T11:09:36.043Z,52.67
2023-04-13T11:12:28.542Z,52.96
2023-04-13T11:15:28.092Z,53.10
2023-04-13T11:18:29.140Z,52.91
2023-04-13T11:21:23.256Z,52.85
2023-04-13T11:24:37.709Z,52.75
2023-04-13T11:27:30.113Z,52.55
2023-04-13T11:30:26.154Z,52.40
2023-04-13T11:33:27.067Z,52.36
2023-04-13T11:36:20.665Z,52.04
2023-04-13T11:39:14.912Z,52.06
2023-04-13T11:42:11.510Z,51.76
2023-04-13T11:44:56.770Z,51.54
2023-04-13T11:47:50.911Z,51.24
2023-04-13T11:50:44.032Z,50.76
2023-04-13T11:53:38.911Z,50.95
2023-04-13T11:56:47.778Z,51.02
2023-04-13T11:59:55.967Z,51.01
2023-04-13T12:03:01.106Z,50.43
2023-04-13T12:06:03.472Z,49.99
2023-04-13T12:09:10.076Z,50.06
2023-04-13T12:15:25.118Z,50.39
2023-04-13T12:18:34.288Z,50.00
2023-04-13T12:21:26.888Z,50.09
2023-04-13T12:24:20.239Z,50.19
2023-04-13T12:27:17.961Z,50.27
2023-04-13T12:30:19.612Z,50.36
2023-04-13T12:33:12.479Z,50.26
2023-04-13T12:36:07.170Z,50.06
2023-04-13T12:38:59.316Z,50.07
2023-04-13T12:41:57.285Z,50.12
2023-04-13T12:44:50.685Z,49.84
2023-04-13T12:47:44.375Z,49.75
2023-04-13T12:50:36.075Z,49.62
2023-04-13T12:53:32.577Z,49.73
2023-04-13T12:56:33.656Z,49.37
2023-04-13T12:59:29.746Z,49.66
2023-04-13T13:02:25.214Z,49.71
2023-04-13T13:05:19.042Z,49.62
2023-04-13T13:08:12.416Z,49.40
2023-04-13T13:11:05.325Z,49.44
2023-04-13T13:14:02.763Z,49.44
2023-04-13T13:16:51.415Z,49.19
2023-04-13T13:19:34.397Z,49.30
2023-04-13T13:22:10.485Z,49.25
2023-04-13T13:25:04.010Z,49.09
2023-04-13T13:28:05.192Z,48.80
2023-04-13T13:30:31.317Z,49.11
2023-04-13T13:33:03.942Z,48.79
2023-04-13T13:35:36.424Z,48.83
2023-04-13T13:38:08.826Z,48.78
2023-04-13T13:40:41.351Z,48.69
2023-04-13T13:43:14.128Z,48.69
2023-04-13T13:45:46.429Z,48.60
2023-04-13T13:48:19.137Z,48.73
2023-04-13T13:50:58.545Z,48.67
2023-04-13T13:53:31.827Z,48.70
2023-04-13T13:56:06.140Z,48.77
2023-04-13T13:58:38.515Z,48.64
2023-04-13T14:01:11.784Z,48.55
2023-04-13T14:03:44.501Z,48.41
2023-04-13T14:06:17.004Z,48.32
2023-04-13T14:08:49.616Z,48.24
2023-04-13T14:11:24.579Z,48.21
2023-04-13T14:13:57.094Z,48.35
2023-04-13T14:16:29.221Z,48.11
2023-04-13T14:19:02.129Z,48.16
2023-04-13T14:21:34.560Z,48.23
2023-04-13T14:24:07.239Z,48.14
2023-04-13T14:26:40.480Z,48.18
2023-04-13T14:29:12.787Z,47.94
2023-04-13T14:31:44.932Z,48.16
2023-04-13T14:34:17.115Z,48.01
2023-04-13T14:36:51.128Z,47.87
2023-04-13T14:39:28.307Z,48.02
2023-04-13T14:42:00.474Z,47.91
2023-04-13T14:44:32.584Z,47.93
2023-04-13T14:47:08.360Z,47.60
2023-04-13T14:49:41.175Z,47.88
2023-04-13T14:52:14.787Z,47.68
2023-04-13T14:54:47.411Z,47.56
2023-04-13T14:57:19.451Z,47.68
2023-04-13T14:59:53.565Z,47.56
2023-04-13T15:02:28.208Z,47.51
2023-04-13T15:05:00.928Z,47.21
2023-04-13T15:07:33.021Z,47.16
2023-04-13T15:10:07.465Z,47.34
2023-04-13T15:12:40.987Z,47.36
2023-04-13T15:15:14.221Z,47.36
2023-04-13T15:17:46.392Z,47.21
2023-04-13T15:20:18.569Z,47.11
2023-04-13T15:22:50.563Z,47.23
2023-04-13T15:25:23.240Z,47.21
2023-04-13T15:27:57.760Z,47.18
2023-04-13T15:30:31.847Z,47.15
2023-04-13T15:33:04.824Z,47.00
2023-04-13T15:35:38.091Z,47.10
2023-04-13T15:38:10.410Z,46.99
2023-04-13T15:40:43.496Z,46.97
2023-04-13T15:43:15.496Z,47.03
2023-04-13T15:45:48.626Z,46.89
2023-04-13T15:48:20.741Z,46.92
2023-04-13T15:51:02.052Z,46.83
2023-04-13T15:53:34.139Z,46.70
2023-04-13T15:56:08.670Z,46.75
2023-04-13T15:58:40.802Z,46.72
2023-04-13T16:01:14.380Z,46.59
2023-04-13T16:03:46.809Z,46.70
2023-04-13T16:06:20.176Z,46.86
2023-04-13T16:08:57.090Z,46.66
2023-04-13T16:11:34.111Z,46.51
2023-04-13T16:14:07.784Z,46.66
2023-04-13T16:16:46.898Z,46.49
2023-04-13T16:19:19.472Z,46.62
2023-04-13T16:21:53.163Z,46.43
2023-04-13T16:24:25.317Z,46.45
2023-04-13T16:26:57.573Z,46.33
2023-04-13T16:29:30.070Z,46.29
2023-04-13T16:32:03.021Z,46.39
2023-04-13T16:34:35.510Z,46.04
2023-04-13T16:37:07.816Z,46.30
2023-04-13T16:39:40.505Z,46.29
2023-04-13T16:42:12.761Z,46.29
2023-04-13T16:44:44.792Z,46.25
2023-04-13T16:47:17.637Z,46.31
2023-04-13T16:49:49.808Z,46.28
2023-04-13T16:52:23.258Z,46.26
2023-04-13T16:54:55.509Z,46.29
2023-04-13T16:57:30.781Z,46.24
2023-04-13T17:00:07.982Z,46.07
2023-04-13T17:02:42.077Z,46.21
2023-04-13T17:05:15.140Z,46.24
2023-04-13T17:07:48.348Z,46.17
2023-04-13T17:10:20.808Z,46.27
2023-04-13T17:12:54.375Z,46.12
2023-04-13T17:15:27.246Z,46.20
2023-04-13T17:17:59.621Z,46.37
2023-04-13T17:20:31.714Z,46.44
2023-04-13T17:23:03.868Z,46.43
2023-04-13T17:25:41.190Z,46.45
2023-04-13T17:28:13.348Z,46.62
2023-04-13T17:30:45.835Z,46.51
2023-04-13T17:33:19.185Z,46.53
2023-04-13T17:35:55.889Z,46.80
2023-04-13T17:38:28.203Z,46.62
2023-04-13T17:41:00.546Z,46.77
2023-04-13T17:43:33.402Z,46.89
2023-04-13T17:46:08.554Z,47.15
2023-04-13T17:48:42.095Z,47.10
2023-04-13T17:51:14.124Z,47.11
2023-04-13T17:53:46.443Z,47.19
2023-04-13T17:56:19.660Z,47.25
2023-04-13T17:58:52.063Z,47.19
2023-04-13T18:01:25.982Z,47.42
2023-04-13T18:04:02.722Z,47.53
2023-04-13T18:06:34.847Z,47.69
2023-04-13T18:09:07.185Z,47.53
2023-04-13T18:11:41.968Z,47.67
2023-04-13T18:14:16.057Z,47.63
2023-04-13T18:16:48.251Z,47.70
2023-04-13T18:19:20.624Z,47.86
2023-04-13T18:21:56.874Z,47.86
2023-04-13T18:24:29.160Z,47.94
2023-04-13T18:29:57.416Z,48.15
2023-04-13T18:32:29.489Z,48.15
2023-04-13T18:35:01.530Z,48.16
2023-04-13T18:37:35.525Z,48.28
2023-04-13T18:40:10.026Z,48.21
2023-04-13T18:42:42.337Z,48.35
2023-04-13T18:45:14.892Z,48.45
2023-04-13T18:47:46.955Z,48.52
2023-04-13T18:50:19.285Z,48.56
2023-04-13T18:52:51.410Z,48.59
2023-04-13T18:55:26.911Z,48.71
2023-04-13T18:57:59.020Z,48.84
2023-04-13T19:00:32.270Z,48.83
2023-04-13T19:03:04.312Z,48.96
2023-04-13T19:05:37.116Z,49.15
2023-04-13T19:08:10.069Z,49.23
2023-04-13T19:10:42.890Z,49.36
2023-04-13T19:13:17.174Z,49.66
2023-04-13T19:15:50.019Z,49.70
2023-04-13T19:18:23.900Z,49.81
2023-04-13T19:20:57.235Z,49.99
2023-04-13T19:23:29.499Z,49.93
2023-04-13T19:26:01.950Z,49.98
2023-04-13T19:28:34.172Z,50.19
2023-04-13T19:31:06.818Z,50.09
2023-04-13T19:33:38.850Z,50.17
2023-04-13T19:36:12.027Z,50.37
2023-04-13T19:38:45.314Z,50.49
2023-04-13T19:41:17.590Z,50.46
2023-04-13T19:43:49.574Z,50.59
2023-04-13T19:46:23.031Z,50.71
2023-04-13T19:48:55.073Z,50.64
2023-04-13T19:51:28.836Z,50.71
2023-04-13T19:54:03.151Z,50.91
2023-04-13T19:56:35.943Z,50.81
2023-04-13T19:59:10.023Z,51.06
2023-04-13T20:01:45.497Z,51.34
2023-04-13T20:04:18.382Z,51.73
2023-04-13T20:06:50.673Z,51.81
2023-04-13T20:09:24.783Z,52.06
2023-04-13T20:11:56.949Z,52.09
2023-04-13T20:14:28.927Z,52.07
2023-04-13T20:17:00.974Z,52.17
2023-04-13T20:19:34.661Z,52.26
2023-04-13T20:22:07.219Z,52.36
2023-04-13T20:24:39.113Z,52.30
2023-04-13T20:27:12.452Z,52.35
2023-04-13T20:29:44.377Z,52.50
2023-04-13T20:32:16.413Z,52.66
2023-04-13T20:34:48.807Z,52.63
2023-04-13T20:37:21.376Z,52.74
2023-04-13T20:39:53.819Z,52.82
2023-04-13T20:42:27.270Z,52.83
2023-04-13T20:44:59.591Z,52.84
2023-04-13T20:47:32.334Z,53.01
2023-04-13T20:50:05.747Z,53.04
2023-04-13T20:52:41.871Z,53.04
2023-04-13T20:55:13.995Z,53.17
2023-04-13T20:57:46.080Z,53.28
2023-04-13T21:00:23.599Z,53.23
2023-04-13T21:02:57.971Z,53.27
2023-04-13T21:05:30.230Z,53.31
2023-04-13T21:08:02.380Z,53.48
2023-04-13T21:10:34.363Z,53.52
2023-04-13T21:13:10.573Z,53.69
2023-04-13T21:15:42.524Z,53.86
2023-04-13T21:18:14.609Z,53.99
2023-04-13T21:20:46.534Z,53.94
2023-04-13T21:23:18.458Z,54.02
2023-04-13T21:25:50.392Z,54.01
2023-04-13T21:28:24.487Z,54.06
2023-04-13T21:30:56.521Z,54.15
2023-04-13T21:33:28.758Z,54.24
2023-04-13T21:36:51.250Z,54.31
2023-04-13T21:38:52.711Z,54.37
2023-04-13T21:41:24.941Z,54.33
2023-04-13T21:43:58.381Z,54.45
2023-04-13T21:46:30.440Z,54.56
2023-04-13T21:49:03.091Z,54.75
2023-04-13T21:51:35.286Z,54.75
2023-04-13T21:54:07.608Z,54.93
2023-04-13T21:56:40.724Z,55.04
2023-04-13T21:59:12.889Z,55.11
2023-04-13T22:01:46.002Z,55.31
2023-04-13T22:04:18.348Z,55.36
2023-04-13T22:06:50.564Z,55.54
2023-04-13T22:09:22.744Z,55.53
2023-04-13T22:11:54.890Z,55.66
2023-04-13T22:14:29.084Z,55.78
2023-04-13T22:17:00.942Z,55.78
2023-04-13T22:19:33.154Z,55.90
2023-04-13T22:22:05.069Z,56.01
2023-04-13T22:24:37.388Z,56.02
2023-04-13T22:27:13.808Z,56.03
2023-04-13T22:29:47.888Z,56.15
2023-04-13T22:32:19.949Z,56.22
2023-04-13T22:34:52.313Z,56.33
2023-04-13T22:37:24.424Z,56.46
2023-04-13T22:39:56.640Z,56.60
2023-04-13T22:42:28.693Z,56.56
2023-04-13T22:45:03.282Z,56.84
2023-04-13T22:47:35.268Z,56.71
2023-04-13T22:50:09.259Z,56.83
2023-04-13T22:52:41.253Z,56.88
2023-04-13T22:55:14.233Z,57.02
2023-04-13T22:57:47.466Z,57.00
2023-04-13T23:00:21.460Z,57.27
2023-04-13T23:02:56.252Z,57.16
2023-04-13T23:05:29.131Z,57.24
2023-04-13T23:08:01.084Z,57.30
2023-04-13T23:10:33.487Z,57.44
2023-04-13T23:13:05.843Z,57.49
2023-04-13T23:15:39.542Z,57.52
2023-04-13T23:18:11.487Z,57.56
2023-04-13T23:20:43.881Z,57.72
2023-04-13T23:23:15.958Z,57.66
2023-04-13T23:25:51.656Z,57.84
2023-04-13T23:28:26.006Z,57.96
2023-04-13T23:31:05.398Z,58.02
2023-04-13T23:33:37.832Z,58.19
2023-04-13T23:36:12.015Z,58.22
2023-04-13T23:38:44.110Z,58.29
2023-04-13T23:41:17.003Z,58.34
2023-04-13T23:43:51.664Z,58.31
2023-04-13T23:46:24.915Z,58.43
2023-04-13T23:48:56.989Z,58.51
2023-04-13T23:51:29.812Z,58.49
2023-04-13T23:54:01.779Z,58.61
2023-04-13T23:56:34.219Z,58.69
2023-04-13T23:59:06.261Z,58.80
